• Join FlightAware (Why Join?)
  • Login
  • US Flag 
08:38AM EDT


 

Airport Tracker/Info


-or-


 

Live Flight TrackerFlight Track Log ✈ EJA922 ✈ 15-Aug-2013 ✈ KAPA - KLIT

Flight Track Log - Related Links

Times and Time Zones

All times are in EDT time to prevent confusion due to time zone crossing. See the EJA922 flight status page for this flight to view local times or setup timezone preferences in your user account.

Time Position Orientation Groundspeed Altitude Reporting Facility
EDT Latitude Longitude Course Direction KTS MPH feet Rate Location/Type
08:09PM 39.6667 -104.8500 90° East 239 275 9,200  Level Denver TRACON
08:10PM 39.7047 -104.8072 41° Northeast 256 295 11,000 1,920 Climbing Denver Center
08:11PM 39.7581 -104.7125 54° Northeast 317 365 12,800 1,560 Climbing Denver Center
08:12PM 39.7531 -104.5847 93° East 381 438 14,300 1,560 Climbing Denver Center
08:13PM 39.7217 -104.4325 105° East 405 466 16,100 1,740 Climbing Denver Center
08:14PM 39.2810 -103.9259 90° East  Level Estimated
08:14PM 39.6922 -104.2875 105° East 420 483 17,900  Level Denver Center
08:15PM 39.6614 -104.1361 105° East 434 499 19,600 1,860 Climbing Denver Center
08:16PM 39.6261 -103.9692 105° East 438 504 21,800 1,740 Climbing Denver Center
08:17PM 39.5956 -103.8183 105° East 442 509 23,300 1,500 Climbing Denver Center
08:18PM 39.5567 -103.6628 108° East 437 503 24,900 1,440 Climbing Denver Center
08:19PM 39.5158 -103.5044 108° East 461 531 26,300 1,200 Climbing Denver Center
08:20PM 39.4728 -103.3422 109° East 475 547 27,400 1,080 Climbing Denver Center
08:21PM 39.4189 -103.1411 109° East 492 566 28,600 1,140 Climbing Denver Center
08:22PM 39.3731 -102.9689 109° East 504 580 29,800 1,200 Climbing Denver Center
08:23PM 39.3186 -102.7983 112° Southeast 514 592 31,100 1,140 Climbing Denver Center
08:24PM 39.2531 -102.6397 118° Southeast 527 606 32,200 1,080 Climbing Denver Center
08:25PM 39.1753 -102.4497 118° Southeast 535 616 33,400 960 Climbing Denver Center
08:26PM 39.1094 -102.2806 117° Southeast 548 631 34,300 720 Climbing Denver Center
08:27PM 39.0281 -102.0853 118° Southeast 553 636 35,000 780 Climbing Denver Center
08:28PM 38.9597 -101.9117 117° Southeast 564 649 36,000 1,200 Climbing Denver Center
08:29PM 38.8783 -101.7156 118° Southeast 560 644 37,500 1,320 Climbing Denver Center
08:30PM 38.8111 -101.5489 117° Southeast 552 635 38,800 1,020 Climbing Denver Center
08:31PM 38.7306 -101.3597 119° Southeast 544 626 39,700 540 Climbing Denver Center
08:33PM 38.6619 -101.1936 118° Southeast 547 629 40,000 120 Climbing Denver Center
08:34PM 38.5800 -100.9994 118° Southeast 553 636 40,000  Level Denver Center
08:35PM 38.5092 -100.8308 118° Southeast 558 642 40,000  Level Denver Center
08:35PM 38.4606 -100.7147 118° Southeast 562 647 40,000 120 Level Kansas City Center
08:36PM 38.3886 -100.5461 119° Southeast 563 648 40,200 600 Climbing Kansas City Center
08:37PM 38.3069 -100.3558 119° Southeast 553 636 41,300 960 Climbing Kansas City Center
08:38PM 38.2372 -100.1939 119° Southeast 545 627 42,200 780 Climbing Kansas City Center
08:39PM 38.1689 -100.0353 119° Southeast 538 619 43,000 360 Climbing Kansas City Center
08:40PM 38.0875 -99.8483 119° Southeast 538 619 43,000  Level Kansas City Center
08:41PM 38.0161 -99.6856 119° Southeast 546 628 43,000  Level Kansas City Center
08:42PM 37.9319 -99.4950 119° Southeast 550 633 43,000  Level Kansas City Center
08:43PM 37.8661 -99.3439 119° Southeast 550 633 43,000  Level Kansas City Center
08:44PM 37.7903 -99.1758 120° Southeast 551 634 43,000  Level Kansas City Center
08:45PM 37.7150 -99.0067 119° Southeast 555 639 43,000  Level Kansas City Center
08:46PM 37.6242 -98.8064 120° Southeast 553 636 43,000  Level Kansas City Center
08:47PM 37.5481 -98.6389 120° Southeast 554 638 43,000  Level Kansas City Center
08:49PM 37.4711 -98.4722 120° Southeast 555 639 43,000  Level Kansas City Center
08:50PM 37.3950 -98.3056 120° Southeast 554 638 43,000  Level Kansas City Center
08:51PM 37.3181 -98.1394 120° Southeast 555 639 43,000  Level Kansas City Center
08:52PM 37.2417 -97.9742 120° Southeast 553 636 43,000  Level Kansas City Center
08:53PM 37.1653 -97.8092 120° Southeast 553 636 43,000  Level Kansas City Center
08:54PM 37.0722 -97.6103 120° Southeast 554 638 43,000  Level Kansas City Center
08:55PM 36.9950 -97.4414 120° Southeast 558 642 43,000  Level Kansas City Center
08:56PM 36.9172 -97.2747 120° Southeast 559 643 43,000  Level Kansas City Center
08:57PM 36.8322 -97.0958 121° Southeast 554 638 43,000  Level Kansas City Center
08:58PM 36.7628 -96.9528 121° Southeast 546 628 43,000  Level Kansas City Center
08:59PM 36.6844 -96.7883 121° Southeast 550 633 43,000  Level Kansas City Center
09:00PM 36.5886 -96.5922 121° Southeast 552 635 43,000  Level Kansas City Center
09:01PM 36.5100 -96.4294 121° Southeast 552 635 43,000  Level Kansas City Center
09:02PM 36.4303 -96.2650 121° Southeast 554 638 43,000  Level Kansas City Center
09:03PM 36.3500 -96.1031 122° Southeast 554 638 43,000  Level Kansas City Center
09:04PM 36.2700 -95.9406 121° Southeast 555 639 43,000  Level Kansas City Center
09:05PM 36.1800 -95.7536 121° Southeast 557 641 43,000  Level Kansas City Center
09:06PM 36.1117 -95.5800 116° Southeast 561 646 43,000  Level Kansas City Center
09:07PM 36.0406 -95.4028 116° Southeast 561 646 43,000  Level Kansas City Center
09:08PM 35.9719 -95.2314 116° Southeast 561 646 43,000 -180 Level Kansas City Center
09:09PM 35.8994 -95.0589 117° Southeast 566 651 42,700 -720 Descending Kansas City Center
09:10PM 35.8142 -94.8942 123° Southeast 570 656 41,500 -1,440 Descending Kansas City Center
09:11PM 35.7292 -94.7428 125° Southeast 569 655 39,900 -1,800 Descending Memphis Center
09:12PM 35.6453 -94.5772 122° Southeast 564 649 38,100 -1,800 Descending Memphis Center
09:13PM 35.5531 -94.3992 122° Southeast 569 655 36,400 -1,800 Descending Memphis Center
09:14PM 35.4881 -94.2097 113° Southeast 582 670 34,500 -1,800 Descending Memphis Center
09:15PM 35.4206 -94.0283 114° Southeast 582 670 32,800 -1,860 Descending Memphis Center
09:16PM 35.3528 -93.8522 115° Southeast 576 663 30,800 3,360 Descending Memphis Center
09:18PM 35.2281 -93.5217 115° Southeast 536 617 43,000 -3,300 Climbing Memphis Center
09:19PM 35.1756 -93.3725 113° Southeast 501 577 20,900 -9,360 Descending Memphis Center
09:21PM 35.0672 -93.0944 115° Southeast 460 529 15,000 -3,000 Descending Memphis Center
09:22PM 35.0353 -93.0250 119° Southeast 430 495 13,300 -2,820 Descending Memphis Center
09:23PM 34.9917 -92.9097 115° Southeast 375 432 10,900 -2,340 Descending Memphis Center
09:23PM 34.9719 -92.8508 112° Southeast 409 471 10,000 -960 Descending Memphis Center
09:24PM 34.9325 -92.7458 115° Southeast 375 432 9,500 -960 Descending Memphis Center
09:25PM 34.9125 -92.6944 115° Southeast 285 328 8,500 -1,860 Descending Memphis Center
09:26PM 34.8706 -92.5947 117° Southeast 285 328 6,400 -1,740 Descending Memphis Center
09:27PM 34.8428 -92.5206 115° Southeast 278 320 5,100 -1,260 Descending Memphis Center
09:28PM 34.8086 -92.4361 116° Southeast 256 295 4,000 -900 Descending Memphis Center
09:28PM 34.7867 -92.3750 114° Southeast 250 288 3,500 -660 Descending Memphis Center
09:29PM 34.7706 -92.3342 116° Southeast 251 289 3,100 -780 Descending Memphis Center
09:30PM 34.7397 -92.3031 140° Southeast 199 229 2,500 -720 Descending Memphis Center
09:31PM 34.6875 -92.3094 186° South 172 198 1,900 -540 Descending Memphis Center
09:32PM 34.6778 -92.2664 105° East 125 144 1,400 -600 Descending Memphis Center
09:33PM 34.7072 -92.2442 32° Northeast 129 148 700 -720 Descending Memphis Center
09:38PM 34.7167 -92.2167 116° Southeast  Level FlightAware Approximate
09:45PM 34.7294 -92.2248 116° Southeast  Level Estimated
09:46PM 34.7294 -92.2248 116° Southeast  Level Estimated
09:47PM 34.7294 -92.2248 116° Southeast  Level Estimated
09:48PM 34.7294 -92.2248 116° Southeast  Level Estimated